VTUO METAR and TAF | Updated Today

VTUO METAR

Buri Ram Airport

Observation time: 7:58 hr. ago

VTUO 061300Z 21001KT 9999 VCSH SCT022 SCT085 26/26 Q1012 NOSIG

Need help? Read our tutorial on how to read METARs or read the parsed version below.

Buri Ram Airport (VTUO) METAR

  • Weather conditions on Thu, 06 Oct 2022 13:00:00 +0000 (7:58 hr. ago):
  • Present conditions: In the vicinity, showers of
  • Clouds: Scattered at 671 meters; scattered at 2591 meters
  • Visibility: Greater than 10 km
  • Wind: 210 degrees at 1 knots
  • Temperature: 26 celsius
  • Dew point: 26 celsius
  • Pressure: 1012 millibars
  • Remarks: None


Useful to know...

VTUO TAF

Buri Ram Airport

TAF VTUO 061700Z 0618/0718 12005KT 9999 FEW025
Observation time: 3:58 hr. ago
Need help? Read our tutorial on how to read TAFs or read the parsed version below.

Parsed version of TAF for Buri Ram Airport (VTUO)

  • From 06 October at 18:00 UTC, to day 07 of the month at 18:00 UTC
  • Clouds: A few at 762 meters
  • Visibility: Greater than 10 km
  • Wind: 120 degrees at 5